createdAt,value
2022-09-23T00:00:43.708Z,10.79
2022-09-23T00:01:43.789Z,10.78
2022-09-23T00:02:43.681Z,10.82
2022-09-23T00:03:43.610Z,10.72
2022-09-23T00:04:43.597Z,10.76
2022-09-23T00:05:43.586Z,10.75
2022-09-23T00:06:43.595Z,10.67
2022-09-23T00:07:43.566Z,10.68
2022-09-23T00:08:43.554Z,10.64
2022-09-23T00:09:43.547Z,10.67
2022-09-23T00:10:43.540Z,10.61
2022-09-23T00:11:43.540Z,10.65
2022-09-23T00:12:43.525Z,10.61
2022-09-23T00:13:43.503Z,10.64
2022-09-23T00:14:43.485Z,10.58
2022-09-23T00:15:43.475Z,10.54
2022-09-23T00:16:43.610Z,10.60
2022-09-23T00:17:43.458Z,10.60
2022-09-23T00:18:43.448Z,10.58
2022-09-23T00:19:43.432Z,10.55
2022-09-23T00:20:43.425Z,10.55
2022-09-23T00:21:43.426Z,10.58
2022-09-23T00:22:43.399Z,10.46
2022-09-23T00:23:43.386Z,10.52
2022-09-23T00:24:43.379Z,10.49
2022-09-23T00:25:43.385Z,10.46
2022-09-23T00:26:43.382Z,10.39
2022-09-23T00:27:43.347Z,10.42
2022-09-23T00:28:43.337Z,10.46
2022-09-23T00:29:43.323Z,10.38
2022-09-23T00:30:43.395Z,10.38
2022-09-23T00:31:43.322Z,10.45
2022-09-23T00:32:43.312Z,10.38
2022-09-23T00:33:43.320Z,10.35
2022-09-23T00:34:43.290Z,10.41
2022-09-23T00:35:43.414Z,10.28
2022-09-23T00:36:43.255Z,10.34
2022-09-23T00:37:43.239Z,10.27
2022-09-23T00:38:43.224Z,10.28
2022-09-23T00:39:43.239Z,10.35
2022-09-23T00:40:43.242Z,10.24
2022-09-23T00:41:43.205Z,10.34
2022-09-23T00:42:43.185Z,10.27
2022-09-23T00:43:43.197Z,10.27
2022-09-23T00:44:43.164Z,10.27
2022-09-23T00:45:43.333Z,10.28
2022-09-23T00:46:43.141Z,10.23
2022-09-23T00:47:43.131Z,10.23
2022-09-23T00:48:43.164Z,10.26
2022-09-23T00:49:43.108Z,10.26
2022-09-23T00:50:43.099Z,10.20
2022-09-23T00:51:43.089Z,10.24
2022-09-23T00:52:43.080Z,10.24
2022-09-23T00:53:43.093Z,10.23
2022-09-23T00:54:43.058Z,10.14
2022-09-23T00:55:43.046Z,10.17
2022-09-23T00:56:43.030Z,10.14
2022-09-23T00:57:43.021Z,10.10
2022-09-23T00:58:43.011Z,10.09
2022-09-23T00:59:43.021Z,10.12
2022-09-23T01:00:43.004Z,10.06
2022-09-23T01:01:43.053Z,10.03
2022-09-23T01:02:43.028Z,10.10
2022-09-23T01:03:42.954Z,10.12
2022-09-23T01:04:43.023Z,10.03
2022-09-23T01:05:42.939Z,10.06
2022-09-23T01:06:42.942Z,10.10
2022-09-23T01:07:42.912Z,10.02
2022-09-23T01:08:42.906Z,10.02
2022-09-23T01:09:42.890Z,10.02
2022-09-23T01:10:42.886Z,10.08
2022-09-23T01:11:42.897Z,10.02
2022-09-23T01:12:42.893Z,10.02
2022-09-23T01:13:42.846Z,9.98
2022-09-23T01:14:42.844Z,9.98
2022-09-23T01:15:42.829Z,10.10
2022-09-23T01:16:42.914Z,9.98
2022-09-23T01:17:42.807Z,10.02
2022-09-23T01:18:42.794Z,9.90
2022-09-23T01:19:42.789Z,9.98
2022-09-23T01:20:42.793Z,9.91
2022-09-23T01:21:42.794Z,9.87
2022-09-23T01:22:42.756Z,9.93
2022-09-23T01:23:42.737Z,9.87
2022-09-23T01:24:42.731Z,9.91
2022-09-23T01:25:42.718Z,9.85
2022-09-23T01:26:42.715Z,9.78
2022-09-23T01:27:42.712Z,9.87
2022-09-23T01:28:42.713Z,9.83
2022-09-23T01:29:42.674Z,9.77
2022-09-23T01:30:42.733Z,9.78
2022-09-23T01:31:42.654Z,9.78
2022-09-23T01:32:42.642Z,9.78
2022-09-23T01:33:42.655Z,9.72
2022-09-23T01:34:42.620Z,9.77
2022-09-23T01:35:42.626Z,9.75
2022-09-23T01:36:42.623Z,9.78
2022-09-23T01:37:42.615Z,9.70
2022-09-23T01:38:42.581Z,9.70
2022-09-23T01:39:42.570Z,9.81
2022-09-23T01:40:42.612Z,9.77
2022-09-23T01:41:42.546Z,9.66
2022-09-23T01:42:42.551Z,9.70
2022-09-23T01:43:42.553Z,9.63
2022-09-23T01:44:42.515Z,9.57
2022-09-23T01:45:42.513Z,9.57
2022-09-23T01:46:42.496Z,9.59
2022-09-23T01:47:42.511Z,9.63
2022-09-23T01:48:42.504Z,9.60
2022-09-23T01:49:42.467Z,9.62
2022-09-23T01:50:42.450Z,9.60
2022-09-23T01:51:42.440Z,9.50
2022-09-23T01:52:42.545Z,9.62
2022-09-23T01:53:42.415Z,9.57
2022-09-23T01:54:42.423Z,9.59
2022-09-23T01:55:42.394Z,9.57
2022-09-23T01:56:42.382Z,9.42
2022-09-23T01:57:42.401Z,9.44
2022-09-23T01:58:42.365Z,9.54
2022-09-23T01:59:49.476Z,9.44
2022-09-23T02:00:42.344Z,9.48
2022-09-23T02:01:42.434Z,9.51
2022-09-23T02:02:42.376Z,9.45
2022-09-23T02:03:42.368Z,9.48
2022-09-23T02:04:42.300Z,9.44
2022-09-23T02:05:42.303Z,9.42
2022-09-23T02:06:42.317Z,9.45
2022-09-23T02:07:42.282Z,9.42
2022-09-23T02:08:42.303Z,9.50
2022-09-23T02:09:42.244Z,9.48
2022-09-23T02:10:42.258Z,9.41
2022-09-23T02:11:42.247Z,9.42
2022-09-23T02:12:42.233Z,9.42
2022-09-23T02:13:42.214Z,9.37
2022-09-23T02:14:42.199Z,9.41
2022-09-23T02:15:42.212Z,9.34
2022-09-23T02:16:42.253Z,9.45
2022-09-23T02:17:42.185Z,9.34
2022-09-23T02:18:42.158Z,9.34
2022-09-23T02:19:42.150Z,9.41
2022-09-23T02:20:42.147Z,9.34
2022-09-23T02:21:42.140Z,9.24
2022-09-23T02:22:42.106Z,9.42
2022-09-23T02:23:42.098Z,9.36
2022-09-23T02:24:42.101Z,9.33
2022-09-23T02:25:42.075Z,9.34
2022-09-23T02:26:42.097Z,9.34
2022-09-23T02:27:42.067Z,9.33
2022-09-23T02:28:42.037Z,9.32
2022-09-23T02:29:42.027Z,9.33
2022-09-23T02:30:42.031Z,9.24
2022-09-23T02:31:42.098Z,9.30
2022-09-23T02:32:42.029Z,9.32
2022-09-23T02:33:41.989Z,9.30
2022-09-23T02:34:41.979Z,9.15
2022-09-23T02:35:41.967Z,9.19
2022-09-23T02:36:41.984Z,9.22
2022-09-23T02:37:41.994Z,9.15
2022-09-23T02:38:41.940Z,9.12
2022-09-23T02:39:41.929Z,9.14
2022-09-23T02:40:42.086Z,9.23
2022-09-23T02:41:41.968Z,9.16
2022-09-23T02:42:41.907Z,9.12
2022-09-23T02:43:41.873Z,9.12
2022-09-23T02:44:41.923Z,9.11
2022-09-23T02:45:41.928Z,9.08
2022-09-23T02:46:41.902Z,9.06
2022-09-23T02:47:41.856Z,9.09
2022-09-23T02:48:41.859Z,9.08
2022-09-23T02:49:41.811Z,9.09
2022-09-23T02:50:41.809Z,9.08
2022-09-23T02:51:41.797Z,9.09
2022-09-23T02:52:41.796Z,9.06
2022-09-23T02:53:41.817Z,9.01
2022-09-23T02:54:41.758Z,9.03
2022-09-23T02:55:41.749Z,9.06
2022-09-23T02:56:41.751Z,9.04
2022-09-23T02:57:41.752Z,9.06
2022-09-23T02:58:41.748Z,8.96
2022-09-23T02:59:41.712Z,8.96
2022-09-23T03:00:41.708Z,8.93
2022-09-23T03:01:41.761Z,8.89
2022-09-23T03:02:41.861Z,8.90
2022-09-23T03:03:41.664Z,8.85
2022-09-23T03:04:41.647Z,8.92
2022-09-23T03:05:41.669Z,8.90
2022-09-23T03:06:41.631Z,8.89
2022-09-23T03:07:41.636Z,8.93
2022-09-23T03:08:41.602Z,8.96
2022-09-23T03:09:41.587Z,8.95
2022-09-23T03:10:41.589Z,8.86
2022-09-23T03:11:41.574Z,8.85
2022-09-23T03:12:41.603Z,8.89
2022-09-23T03:13:41.621Z,8.88
2022-09-23T03:14:41.556Z,8.85
2022-09-23T03:15:41.563Z,8.86
2022-09-23T03:16:41.586Z,8.83
2022-09-23T03:17:41.521Z,8.78
2022-09-23T03:18:41.534Z,8.81
2022-09-23T03:19:41.542Z,8.80
2022-09-23T03:20:41.516Z,8.80
2022-09-23T03:21:41.461Z,8.72
2022-09-23T03:22:41.482Z,8.75
2022-09-23T03:23:41.444Z,8.75
2022-09-23T03:24:41.425Z,8.75
2022-09-23T03:25:41.446Z,8.75
2022-09-23T03:26:41.413Z,8.77
2022-09-23T03:27:41.476Z,8.72
2022-09-23T03:28:41.405Z,8.68
2022-09-23T03:29:41.381Z,8.71
2022-09-23T03:30:41.364Z,8.70
2022-09-23T03:31:41.436Z,8.65
2022-09-23T03:32:41.356Z,8.75
2022-09-23T03:33:41.332Z,8.67
2022-09-23T03:34:41.351Z,8.56
2022-09-23T03:35:41.303Z,8.60
2022-09-23T03:36:41.329Z,8.62
2022-09-23T03:37:41.329Z,8.62
2022-09-23T03:38:41.283Z,8.62
2022-09-23T03:39:41.272Z,8.65
2022-09-23T03:40:41.334Z,8.65
2022-09-23T03:41:41.283Z,8.59
2022-09-23T03:42:41.239Z,8.59
2022-09-23T03:43:41.232Z,8.57
2022-09-23T03:44:41.258Z,8.60
2022-09-23T03:45:41.260Z,8.56
2022-09-23T03:46:41.192Z,8.63
2022-09-23T03:47:41.234Z,8.50
2022-09-23T03:48:41.189Z,8.53
2022-09-23T03:49:41.168Z,8.59
2022-09-23T03:50:41.188Z,8.55
2022-09-23T03:51:44.536Z,8.52
2022-09-23T03:52:41.193Z,8.47
2022-09-23T03:53:41.112Z,8.39
2022-09-23T03:54:41.094Z,8.42
2022-09-23T03:55:41.148Z,8.39
2022-09-23T03:56:41.085Z,8.42
2022-09-23T03:57:41.109Z,8.50
2022-09-23T03:58:41.059Z,8.46
2022-09-23T03:59:41.062Z,8.44
2022-09-23T04:00:41.131Z,8.44
2022-09-23T04:01:41.079Z,8.46
2022-09-23T04:02:41.029Z,8.44
2022-09-23T04:03:41.041Z,8.35
2022-09-23T04:04:41.018Z,8.38
2022-09-23T04:05:41.086Z,8.39
2022-09-23T04:06:40.983Z,8.41
2022-09-23T04:07:41.014Z,8.38
2022-09-23T04:08:40.945Z,8.39
2022-09-23T04:09:40.981Z,8.46
2022-09-23T04:10:40.957Z,8.31
2022-09-23T04:11:40.955Z,8.39
2022-09-23T04:12:40.914Z,8.29
2022-09-23T04:13:40.899Z,8.37
2022-09-23T04:14:40.928Z,8.34
2022-09-23T04:15:40.912Z,8.35
2022-09-23T04:16:40.902Z,8.31
2022-09-23T04:17:40.874Z,8.32
2022-09-23T04:18:40.846Z,8.35
2022-09-23T04:19:40.846Z,8.35
2022-09-23T04:20:40.846Z,8.35
2022-09-23T04:21:40.860Z,8.24
2022-09-23T04:22:40.873Z,8.24
2022-09-23T04:23:40.790Z,8.29
2022-09-23T04:24:40.784Z,8.28
2022-09-23T04:25:40.793Z,8.24
2022-09-23T04:26:40.761Z,8.21
2022-09-23T04:27:40.806Z,8.28
2022-09-23T04:28:40.734Z,8.20
2022-09-23T04:29:40.796Z,8.23
2022-09-23T04:30:40.722Z,8.14
2022-09-23T04:31:40.917Z,8.20
2022-09-23T04:32:40.744Z,8.21
2022-09-23T04:33:40.701Z,8.10
2022-09-23T04:34:40.678Z,8.23
2022-09-23T04:35:40.704Z,8.20
2022-09-23T04:36:40.670Z,8.13
2022-09-23T04:37:40.658Z,8.10
2022-09-23T04:38:40.652Z,8.13
2022-09-23T04:39:40.642Z,8.12
2022-09-23T04:40:40.696Z,8.13
2022-09-23T04:41:40.610Z,8.13
2022-09-23T04:42:40.639Z,8.12
2022-09-23T04:43:40.643Z,8.09
2022-09-23T04:44:40.603Z,8.10
2022-09-23T04:45:40.562Z,8.14
2022-09-23T04:46:40.616Z,8.16
2022-09-23T04:47:40.542Z,8.12
2022-09-23T04:48:40.559Z,8.10
2022-09-23T04:49:40.553Z,8.12
2022-09-23T04:50:40.509Z,8.06
2022-09-23T04:51:40.498Z,8.01
2022-09-23T04:52:40.479Z,8.10
2022-09-23T04:53:40.479Z,7.99
2022-09-23T04:54:40.551Z,7.99
2022-09-23T04:55:40.475Z,7.98
2022-09-23T04:56:40.442Z,7.98
2022-09-23T04:57:40.435Z,8.02
2022-09-23T04:58:40.421Z,8.04
2022-09-23T04:59:40.465Z,8.01
2022-09-23T05:00:40.456Z,7.98
2022-09-23T05:01:40.584Z,8.01
2022-09-23T05:02:40.427Z,8.02
2022-09-23T05:03:40.388Z,7.96
2022-09-23T05:04:40.423Z,8.02
2022-09-23T05:05:40.391Z,7.98
2022-09-23T05:06:40.342Z,7.96
2022-09-23T05:07:40.325Z,7.95
2022-09-23T05:08:40.315Z,7.96
2022-09-23T05:09:40.331Z,7.91
2022-09-23T05:10:40.328Z,8.01
2022-09-23T05:11:40.288Z,7.99
2022-09-23T05:12:40.338Z,7.99
2022-09-23T05:13:40.322Z,7.98
2022-09-23T05:14:40.320Z,7.86
2022-09-23T05:15:40.301Z,7.92
2022-09-23T05:16:40.309Z,7.92
2022-09-23T05:17:40.237Z,7.87
2022-09-23T05:18:40.233Z,7.87
2022-09-23T05:19:40.203Z,7.87
2022-09-23T05:20:40.240Z,7.91
2022-09-23T05:21:40.221Z,7.84
2022-09-23T05:22:40.183Z,7.86
2022-09-23T05:23:40.186Z,7.86
2022-09-23T05:24:40.143Z,7.87
2022-09-23T05:25:40.182Z,7.88
2022-09-23T05:26:40.130Z,7.86
2022-09-23T05:27:40.149Z,7.91
2022-09-23T05:28:40.145Z,7.88
2022-09-23T05:29:40.106Z,7.92
2022-09-23T05:30:40.081Z,7.88
2022-09-23T05:31:40.144Z,7.88
2022-09-23T05:32:40.069Z,7.94
2022-09-23T05:33:40.065Z,7.78
2022-09-23T05:34:40.074Z,7.86
2022-09-23T05:35:40.060Z,7.86
2022-09-23T05:36:40.071Z,7.86
2022-09-23T05:37:40.027Z,7.83
2022-09-23T05:38:39.996Z,7.86
2022-09-23T05:39:40.018Z,7.87
2022-09-23T05:40:40.065Z,7.88
2022-09-23T05:41:39.967Z,7.80
2022-09-23T05:42:39.962Z,7.91
2022-09-23T05:43:39.953Z,7.76
2022-09-23T05:44:39.980Z,7.84
2022-09-23T05:45:39.961Z,7.81
2022-09-23T05:46:39.984Z,7.77
2022-09-23T05:47:39.906Z,7.76
2022-09-23T05:48:39.932Z,7.81
2022-09-23T05:49:58.651Z,7.76
2022-09-23T05:50:40.872Z,7.73
2022-09-23T05:51:39.888Z,7.78
2022-09-23T05:52:39.867Z,7.81
2022-09-23T05:53:39.845Z,7.83
2022-09-23T05:54:39.863Z,7.76
2022-09-23T05:55:39.821Z,7.78
2022-09-23T05:56:39.834Z,7.83
2022-09-23T05:57:39.804Z,7.78
2022-09-23T05:58:39.824Z,7.80
2022-09-23T05:59:39.778Z,7.80
2022-09-23T06:00:39.796Z,7.80
2022-09-23T06:01:39.873Z,7.77
2022-09-23T06:02:39.838Z,7.76
2022-09-23T06:03:39.744Z,7.80
2022-09-23T06:04:39.742Z,7.83
2022-09-23T06:05:39.749Z,7.77
2022-09-23T06:06:39.722Z,7.80
2022-09-23T06:07:39.687Z,7.78
2022-09-23T06:08:39.699Z,7.80
2022-09-23T06:09:39.685Z,7.80
2022-09-23T06:10:39.673Z,7.88
2022-09-23T06:11:39.723Z,7.76
2022-09-23T06:12:39.642Z,7.74
2022-09-23T06:13:39.640Z,7.86
2022-09-23T06:14:39.616Z,7.92
2022-09-23T06:15:39.701Z,7.81
2022-09-23T06:16:39.624Z,7.87
2022-09-23T06:17:39.601Z,7.78
2022-09-23T06:18:39.570Z,7.83
2022-09-23T06:19:39.573Z,7.92
2022-09-23T06:20:39.557Z,7.92
2022-09-23T06:21:39.583Z,7.95
2022-09-23T06:22:40.249Z,7.92
2022-09-23T06:23:41.529Z,7.84
2022-09-23T06:24:39.636Z,7.86
2022-09-23T06:25:39.520Z,7.91
2022-09-23T06:26:39.561Z,7.87
2022-09-23T06:27:39.489Z,7.88
2022-09-23T06:28:39.467Z,7.84
2022-09-23T06:29:39.489Z,7.87
2022-09-23T06:30:39.469Z,7.88
2022-09-23T06:31:39.453Z,7.91
2022-09-23T06:32:39.437Z,7.98
2022-09-23T06:33:39.423Z,7.98
2022-09-23T06:34:49.874Z,7.95
2022-09-23T06:35:40.936Z,7.95
2022-09-23T06:36:43.983Z,7.95
2022-09-23T06:37:40.426Z,7.92
2022-09-23T06:38:39.381Z,7.95
2022-09-23T06:39:39.366Z,7.96
2022-09-23T06:40:39.441Z,7.95
2022-09-23T06:41:39.464Z,8.02
2022-09-23T06:42:39.348Z,7.98
2022-09-23T06:43:39.346Z,8.05
2022-09-23T06:44:39.336Z,8.05
2022-09-23T06:45:39.377Z,8.12
2022-09-23T06:46:39.343Z,8.13
2022-09-23T06:47:39.275Z,8.13
2022-09-23T06:48:42.813Z,8.09
2022-09-23T06:49:40.292Z,8.12
2022-09-23T06:50:39.287Z,8.13
2022-09-23T06:51:39.280Z,8.13
2022-09-23T06:52:39.210Z,8.09
2022-09-23T06:53:39.207Z,8.09
2022-09-23T06:54:39.248Z,8.26
2022-09-23T06:55:39.207Z,8.21
2022-09-23T06:56:39.932Z,8.24
2022-09-23T06:57:39.167Z,8.31
2022-09-23T06:58:39.152Z,8.34
2022-09-23T06:59:39.161Z,8.29
2022-09-23T07:00:39.124Z,8.29
2022-09-23T07:01:39.417Z,8.31
2022-09-23T07:02:39.446Z,8.37
2022-09-23T07:03:39.098Z,8.28
2022-09-23T07:04:39.117Z,8.41
2022-09-23T07:05:39.119Z,8.38
2022-09-23T07:06:39.094Z,8.39
2022-09-23T07:07:39.098Z,8.44
2022-09-23T07:08:39.083Z,8.50
2022-09-23T07:09:39.038Z,8.46
2022-09-23T07:10:39.019Z,8.41
2022-09-23T07:11:39.013Z,8.50
2022-09-23T07:12:39.049Z,8.59
2022-09-23T07:13:39.058Z,8.62
2022-09-23T07:14:38.971Z,8.62
2022-09-23T07:15:39.067Z,8.62
2022-09-23T07:16:38.966Z,8.65
2022-09-23T07:17:38.945Z,8.70
2022-09-23T07:18:39.011Z,8.70
2022-09-23T07:19:38.924Z,8.77
2022-09-23T07:20:38.909Z,8.72
2022-09-23T07:21:38.944Z,8.67
2022-09-23T07:22:38.931Z,8.86
2022-09-23T07:23:38.903Z,8.78
2022-09-23T07:24:38.872Z,8.81
2022-09-23T07:25:38.886Z,8.88
2022-09-23T07:26:43.478Z,8.89
2022-09-23T07:27:39.833Z,8.93
2022-09-23T07:28:38.905Z,9.03
2022-09-23T07:29:48.104Z,8.88
2022-09-23T07:30:44.903Z,8.99
2022-09-23T07:31:40.234Z,9.06
2022-09-23T07:32:47.060Z,9.08
2022-09-23T07:33:40.037Z,9.09
2022-09-23T07:34:38.801Z,9.11
2022-09-23T07:35:38.755Z,9.14
2022-09-23T07:36:38.735Z,9.18
2022-09-23T07:37:38.741Z,9.23
2022-09-23T07:38:44.226Z,9.16
2022-09-23T07:39:39.747Z,9.27
2022-09-23T07:40:38.751Z,9.30
2022-09-23T07:41:38.684Z,9.32
2022-09-23T07:42:38.688Z,9.24
2022-09-23T07:43:38.687Z,9.33
2022-09-23T07:44:38.672Z,9.40
2022-09-23T07:45:38.646Z,9.37
2022-09-23T07:46:38.791Z,9.42
2022-09-23T07:47:38.612Z,9.45
2022-09-23T07:48:38.656Z,9.48
2022-09-23T07:49:38.591Z,9.42
2022-09-23T07:50:38.584Z,9.51
2022-09-23T07:51:38.565Z,9.55
2022-09-23T07:52:38.597Z,9.63
2022-09-23T07:53:38.599Z,9.57
2022-09-23T07:54:38.601Z,9.60
2022-09-23T07:55:38.555Z,9.78
2022-09-23T07:56:38.575Z,9.75
2022-09-23T07:57:38.498Z,9.80
2022-09-23T07:58:38.500Z,9.84
2022-09-23T07:59:38.584Z,9.91
2022-09-23T08:00:38.511Z,9.85
2022-09-23T08:01:38.589Z,9.96
2022-09-23T08:02:38.507Z,9.96
2022-09-23T08:03:38.438Z,10.02
2022-09-23T08:04:38.449Z,10.05
2022-09-23T08:06:30.333Z,10.16
2022-09-23T08:07:30.335Z,10.06
2022-09-23T08:08:30.326Z,10.17
2022-09-23T08:09:30.322Z,10.17
2022-09-23T08:10:30.299Z,10.17
2022-09-23T08:11:30.284Z,10.21
2022-09-23T08:12:30.269Z,10.28
2022-09-23T08:13:30.265Z,10.34
2022-09-23T08:14:30.277Z,10.30
2022-09-23T08:15:30.294Z,10.42
2022-09-23T08:16:30.406Z,10.42
2022-09-23T08:17:30.220Z,10.39
2022-09-23T08:18:30.213Z,10.46
2022-09-23T08:19:30.212Z,10.45
2022-09-23T08:20:30.205Z,10.55
2022-09-23T08:21:30.175Z,10.57
2022-09-23T08:22:30.167Z,10.61
2022-09-23T08:23:30.155Z,10.62
2022-09-23T08:24:30.166Z,10.73
2022-09-23T08:25:33.322Z,10.75
2022-09-23T08:26:30.119Z,10.79
2022-09-23T08:27:30.109Z,10.85
2022-09-23T08:28:30.098Z,10.79
2022-09-23T08:29:30.084Z,10.87
2022-09-23T08:30:30.096Z,10.94
2022-09-23T08:31:30.065Z,10.93
2022-09-23T08:32:30.070Z,11.01
2022-09-23T08:33:30.046Z,11.01
2022-09-23T08:34:30.048Z,11.04
2022-09-23T08:35:30.024Z,11.01
2022-09-23T08:36:30.036Z,11.13
2022-09-23T08:37:29.996Z,11.09
2022-09-23T08:38:29.990Z,11.19
2022-09-23T08:39:30.000Z,11.13
2022-09-23T08:40:30.036Z,11.23
2022-09-23T08:41:29.980Z,11.25
2022-09-23T08:42:29.947Z,11.31
2022-09-23T08:43:29.944Z,11.30
2022-09-23T08:44:29.926Z,11.45
2022-09-23T08:45:29.918Z,11.46
2022-09-23T08:46:29.967Z,11.48
2022-09-23T08:47:29.894Z,11.45
2022-09-23T08:48:29.911Z,11.49
2022-09-23T08:49:29.877Z,11.51
2022-09-23T08:50:29.858Z,11.54
2022-09-23T08:51:29.852Z,11.54
2022-09-23T08:52:29.848Z,11.61
2022-09-23T08:53:29.825Z,11.66
2022-09-23T08:54:29.815Z,11.69
2022-09-23T08:55:29.808Z,11.64
2022-09-23T08:56:29.797Z,11.79
2022-09-23T08:57:29.802Z,11.80
2022-09-23T08:58:29.796Z,11.74
2022-09-23T08:59:29.760Z,11.82
2022-09-23T09:00:29.747Z,11.79
2022-09-23T09:01:29.841Z,11.80
2022-09-23T09:02:29.793Z,11.93
2022-09-23T09:03:29.745Z,11.95
2022-09-23T09:04:29.732Z,11.87
2022-09-23T09:05:29.691Z,11.91
2022-09-23T09:06:29.688Z,11.91
2022-09-23T09:07:36.566Z,11.89
2022-09-23T09:08:30.682Z,12.03
2022-09-23T09:09:29.654Z,12.08
2022-09-23T09:10:29.644Z,11.97
2022-09-23T09:11:29.629Z,12.04
2022-09-23T09:12:29.619Z,12.17
2022-09-23T09:13:29.632Z,12.14
2022-09-23T09:14:29.594Z,12.23
2022-09-23T09:15:29.664Z,12.15
2022-09-23T09:16:55.468Z,12.23
2022-09-23T09:17:34.842Z,12.26
2022-09-23T09:18:29.602Z,12.28
2022-09-23T09:19:29.549Z,12.41
2022-09-23T09:20:29.557Z,12.36
2022-09-23T09:21:29.524Z,12.35
2022-09-23T09:22:29.547Z,12.36
2022-09-23T09:23:29.514Z,12.47
2022-09-23T09:24:29.549Z,12.46
2022-09-23T09:25:33.522Z,12.54
2022-09-23T09:26:29.469Z,12.48
2022-09-23T09:27:29.459Z,12.58
2022-09-23T09:28:29.445Z,12.48
2022-09-23T09:29:36.776Z,12.55
2022-09-23T09:30:30.426Z,12.55
2022-09-23T09:31:29.509Z,12.69
2022-09-23T09:32:29.401Z,12.65
2022-09-23T09:33:29.388Z,12.59
2022-09-23T09:34:29.404Z,12.79
2022-09-23T09:35:29.376Z,12.66
2022-09-23T09:36:30.946Z,12.71
2022-09-23T09:37:31.738Z,12.68
2022-09-23T09:38:29.337Z,12.79
2022-09-23T09:39:29.327Z,12.77
2022-09-23T09:40:29.383Z,12.91
2022-09-23T09:41:29.305Z,12.90
2022-09-23T09:42:29.321Z,12.87
2022-09-23T09:43:32.163Z,12.98
2022-09-23T09:44:29.272Z,12.98
2022-09-23T09:45:29.259Z,12.93
2022-09-23T09:46:29.464Z,13.08
2022-09-23T09:47:29.241Z,13.09
2022-09-23T09:48:29.251Z,13.08
2022-09-23T09:49:29.249Z,13.17
2022-09-23T09:50:29.215Z,13.19
2022-09-23T09:51:29.195Z,13.21
2022-09-23T09:52:29.202Z,13.11
2022-09-23T09:53:29.125Z,13.35
2022-09-23T09:54:29.143Z,13.16
2022-09-23T09:55:29.102Z,13.29
2022-09-23T09:56:29.084Z,13.29
2022-09-23T09:57:32.229Z,13.38
2022-09-23T09:58:30.070Z,13.36
2022-09-23T09:59:29.054Z,13.45
2022-09-23T10:00:29.070Z,13.51
2022-09-23T10:01:29.082Z,13.49
2022-09-23T10:02:29.023Z,13.55
2022-09-23T10:03:29.008Z,13.49
2022-09-23T10:04:29.076Z,13.57
2022-09-23T10:05:28.985Z,13.67
2022-09-23T10:06:28.975Z,13.71
2022-09-23T10:07:29.002Z,13.72
2022-09-23T10:08:28.973Z,13.78
2022-09-23T10:09:28.939Z,13.79
2022-09-23T10:10:32.941Z,13.85
2022-09-23T10:11:28.916Z,13.90
2022-09-23T10:12:28.933Z,13.88
2022-09-23T10:13:28.932Z,13.96
2022-09-23T10:14:28.905Z,13.91
2022-09-23T10:15:28.872Z,14.01
2022-09-23T10:16:28.893Z,14.04
2022-09-23T10:17:28.851Z,14.16
2022-09-23T10:18:28.851Z,14.21
2022-09-23T10:19:28.851Z,14.19
2022-09-23T10:20:28.814Z,14.26
2022-09-23T10:21:28.830Z,14.21
2022-09-23T10:22:28.797Z,14.36
2022-09-23T10:23:28.788Z,14.38
2022-09-23T10:24:28.795Z,14.45
2022-09-23T10:25:28.789Z,14.52
2022-09-23T10:26:28.775Z,14.58
2022-09-23T10:27:28.748Z,14.58
2022-09-23T10:28:28.730Z,14.61
2022-09-23T10:29:28.722Z,14.63
2022-09-23T10:30:28.756Z,14.77
2022-09-23T10:31:28.707Z,14.78
2022-09-23T10:32:28.689Z,14.77
2022-09-23T10:33:28.678Z,14.95
2022-09-23T10:34:28.666Z,14.89
2022-09-23T10:35:28.684Z,15.05
2022-09-23T10:36:28.650Z,15.01
2022-09-23T10:37:28.642Z,15.17
2022-09-23T10:38:28.638Z,15.10
2022-09-23T10:39:28.626Z,15.15
2022-09-23T10:40:28.740Z,15.27
2022-09-23T10:41:28.594Z,15.32
2022-09-23T10:42:28.581Z,15.41
2022-09-23T10:43:28.620Z,15.45
2022-09-23T10:44:28.567Z,15.52
2022-09-23T10:45:28.554Z,15.60
2022-09-23T10:46:28.640Z,15.56
2022-09-23T10:47:28.546Z,15.63
2022-09-23T10:48:28.551Z,15.80
2022-09-23T10:49:28.534Z,15.73
2022-09-23T10:50:28.500Z,15.85
2022-09-23T10:51:28.488Z,15.85
2022-09-23T10:52:28.481Z,15.91
2022-09-23T10:53:28.507Z,16.03
2022-09-23T10:54:28.479Z,16.05
2022-09-23T10:55:28.451Z,16.13
2022-09-23T10:56:28.465Z,16.22
2022-09-23T10:57:28.427Z,16.28
2022-09-23T10:58:28.421Z,16.42
2022-09-23T10:59:28.426Z,16.52
2022-09-23T11:00:28.396Z,16.52
2022-09-23T11:01:28.431Z,16.69
2022-09-23T11:02:28.382Z,16.64
2022-09-23T11:03:28.365Z,16.67
2022-09-23T11:04:28.388Z,16.74
2022-09-23T11:05:28.340Z,16.74
2022-09-23T11:06:28.347Z,16.82
2022-09-23T11:07:28.325Z,16.83
2022-09-23T11:08:28.315Z,16.92
2022-09-23T11:09:28.324Z,16.99
2022-09-23T11:10:45.508Z,17.01
2022-09-23T11:11:29.281Z,17.13
2022-09-23T11:12:28.288Z,17.04
2022-09-23T11:13:28.262Z,17.24
2022-09-23T11:14:28.279Z,17.28
2022-09-23T11:15:28.249Z,17.32
2022-09-23T11:16:28.285Z,17.34
2022-09-23T11:17:28.222Z,17.43
2022-09-23T11:18:28.211Z,17.46
2022-09-23T11:19:28.219Z,17.46
2022-09-23T11:20:28.193Z,17.52
2022-09-23T11:21:28.178Z,17.59
2022-09-23T11:22:28.173Z,17.68
2022-09-23T11:23:28.155Z,17.65
2022-09-23T11:24:28.173Z,17.75
2022-09-23T11:25:28.155Z,17.86
2022-09-23T11:26:32.828Z,17.87
2022-09-23T11:27:29.125Z,17.87
2022-09-23T11:28:28.130Z,17.99
2022-09-23T11:29:28.120Z,17.90
2022-09-23T11:30:28.152Z,17.94
2022-09-23T11:31:28.074Z,18.09
2022-09-23T11:32:28.060Z,18.11
2022-09-23T11:33:28.069Z,18.20
2022-09-23T11:34:28.042Z,18.21
2022-09-23T11:35:28.054Z,18.23
2022-09-23T11:36:28.024Z,18.34
2022-09-23T11:37:28.013Z,18.41
2022-09-23T11:38:28.039Z,18.34
2022-09-23T11:39:27.992Z,18.41
2022-09-23T11:40:28.027Z,18.51
2022-09-23T11:41:27.962Z,18.52
2022-09-23T11:42:27.959Z,18.56
2022-09-23T11:43:27.947Z,18.51
2022-09-23T11:44:27.974Z,18.67
2022-09-23T11:45:27.936Z,18.67
2022-09-23T11:46:28.002Z,18.76
2022-09-23T11:47:27.913Z,18.78
2022-09-23T11:48:27.889Z,18.82
2022-09-23T11:49:27.877Z,18.85
2022-09-23T11:50:27.874Z,18.88
2022-09-23T11:51:27.875Z,19.01
2022-09-23T11:52:27.851Z,19.01
2022-09-23T11:53:27.840Z,19.08
2022-09-23T11:54:27.828Z,19.15
2022-09-23T11:55:27.837Z,19.17
2022-09-23T11:56:34.636Z,19.22
2022-09-23T11:57:33.375Z,19.23
2022-09-23T11:58:28.841Z,19.38
2022-09-23T11:59:38.481Z,19.44
2022-09-23T12:00:28.787Z,19.42
2022-09-23T12:01:35.995Z,19.49
2022-09-23T12:02:31.001Z,19.60
2022-09-23T12:03:39.674Z,19.67
2022-09-23T12:04:29.431Z,19.64
2022-09-23T12:05:27.808Z,19.74
2022-09-23T12:06:27.701Z,19.72
2022-09-23T12:07:28.052Z,19.84
2022-09-23T12:08:27.694Z,19.89
2022-09-23T12:09:54.047Z,20.04
2022-09-23T12:10:28.676Z,20.09
2022-09-23T12:11:27.671Z,20.25
2022-09-23T12:12:27.661Z,20.32
2022-09-23T12:13:27.627Z,20.29
2022-09-23T12:14:27.618Z,20.37
2022-09-23T12:15:27.605Z,20.56
2022-09-23T12:16:27.687Z,20.67
2022-09-23T12:17:27.595Z,20.90
2022-09-23T12:18:27.570Z,21.23
2022-09-23T12:19:27.569Z,21.32
2022-09-23T12:20:27.551Z,21.53
2022-09-23T12:21:49.197Z,21.85
2022-09-23T12:22:28.558Z,22.01
2022-09-23T12:23:27.522Z,22.16
2022-09-23T12:24:27.513Z,22.22
2022-09-23T12:25:27.502Z,22.21
2022-09-23T12:26:27.492Z,22.27
2022-09-23T12:27:27.496Z,22.27
2022-09-23T12:28:27.464Z,22.33
2022-09-23T12:30:27.572Z,22.33
2022-09-23T12:31:27.440Z,22.41
2022-09-23T12:32:27.473Z,22.49
2022-09-23T12:33:27.415Z,22.43
2022-09-23T12:34:27.407Z,22.52
2022-09-23T12:35:27.398Z,22.56
2022-09-23T12:36:27.384Z,22.58
2022-09-23T12:37:27.384Z,22.66
2022-09-23T12:38:27.386Z,22.70
2022-09-23T12:39:27.345Z,22.76
2022-09-23T12:40:27.369Z,22.86
2022-09-23T12:41:27.332Z,22.83
2022-09-23T12:42:30.916Z,22.85
2022-09-23T12:43:27.328Z,22.88
2022-09-23T12:44:27.299Z,22.88
2022-09-23T12:45:27.283Z,22.98
2022-09-23T12:46:27.325Z,22.96
2022-09-23T12:47:27.266Z,22.99
2022-09-23T12:48:27.394Z,23.08
2022-09-23T12:49:27.243Z,23.11
2022-09-23T12:50:27.229Z,23.14
2022-09-23T12:51:27.217Z,23.31
2022-09-23T12:52:27.210Z,23.34
2022-09-23T12:53:27.218Z,23.44
2022-09-23T12:54:27.208Z,23.39
2022-09-23T12:55:27.184Z,23.44
2022-09-23T12:56:27.166Z,23.66
2022-09-23T12:57:27.154Z,23.79
2022-09-23T12:58:27.161Z,23.74
2022-09-23T12:59:27.136Z,23.85
2022-09-23T13:00:30.928Z,23.97
2022-09-23T13:01:28.238Z,23.98
2022-09-23T13:02:27.185Z,24.15
2022-09-23T13:03:27.098Z,24.22
2022-09-23T13:04:27.101Z,24.22
2022-09-23T13:05:27.099Z,24.31
2022-09-23T13:06:27.065Z,24.31
2022-09-23T13:07:27.055Z,24.38